Time;durP1;ratioP1;P1;durP2;ratioP2;P2;SDS_P1;SDS_P2;PMS_P1;PMS_P2;Temp;Humidity;BMP_temperature;BMP_pressure;BME280_temperature;BME280_humidity;BME280_pressure;Samples;Min_cycle;Max_cycle;Signal;HPM_P1;HPM_P2
2021/10/27 00:02:00;;;;;;;;;;;26.40;43.10;;;;;;5097485;28;20357;-83
2021/10/27 00:04:25;;;;;;;;;;;26.40;43.10;;;;;;5079569;28;19920;-84
2021/10/27 00:06:51;;;;;;;;;;;26.40;43.10;;;;;;5079526;28;19908;-86
2021/10/27 00:09:16;;;;;;;;;;;26.40;43.10;;;;;;5097147;28;19919;-82
2021/10/27 00:11:44;;;;;;;;;;;26.40;43.10;;;;;;5097254;28;19912;-84
2021/10/27 00:14:11;;;;;;;;;;;26.40;43.10;;;;;;5079863;28;19908;-83
2021/10/27 00:16:36;;;;;;;;;;;26.50;43.10;;;;;;5079175;28;19931;-86
2021/10/27 00:19:02;;;;;;;;;;;26.40;43.10;;;;;;5062558;28;19908;-85
2021/10/27 00:21:29;;;;;;;;;;;26.40;43.10;;;;;;5079269;28;20344;-85
2021/10/27 00:23:55;;;;;;;;;;;26.40;43.10;;;;;;5079558;28;19908;-82
2021/10/27 00:26:23;;;;;;;;;;;26.50;43.10;;;;;;5062404;28;19926;-85
2021/10/27 00:28:48;;;;;;;;;;;26.40;43.10;;;;;;5062298;28;19912;-84
2021/10/27 00:31:14;;;;;;;;;;;26.40;43.10;;;;;;5079098;28;19999;-82
2021/10/27 00:33:43;;;;;;;;;;;26.40;43.10;;;;;;5079191;28;19912;-83
2021/10/27 00:36:09;;;;;;;;;;;26.40;43.10;;;;;;5079304;28;19913;-87
2021/10/27 00:38:37;;;;;;;;;;;26.40;43.10;;;;;;5078937;28;19920;-86
2021/10/27 00:41:03;;;;;;;;;;;26.40;43.00;;;;;;5061361;28;19999;-82
2021/10/27 00:43:28;;;;;;;;;;;26.40;43.10;;;;;;5062192;28;20351;-84
2021/10/27 00:45:54;;;;;;;;;;;26.40;43.00;;;;;;5078927;28;19916;-82
2021/10/27 00:48:22;;;;;;;;;;;26.40;43.00;;;;;;5079228;28;20395;-84
2021/10/27 00:50:47;;;;;;;;;;;26.50;43.10;;;;;;5079061;28;19923;-86
2021/10/27 00:53:15;;;;;;;;;;;26.40;43.10;;;;;;5096611;28;20249;-82
2021/10/27 00:55:43;;;;;;;;;;;26.40;43.00;;;;;;5079047;28;19908;-85
2021/10/27 00:58:09;;;;;;;;;;;26.50;43.10;;;;;;5078769;28;20082;-85
2021/10/27 01:00:35;;;;;;;;;;;26.40;43.00;;;;;;5078608;28;20030;-83
2021/10/27 01:03:01;;;;;;;;;;;26.40;43.00;;;;;;5078394;28;20344;-83
2021/10/27 01:05:26;;;;;;;;;;;26.40;43.00;;;;;;5078741;28;19908;-85
2021/10/27 01:07:52;;;;;;;;;;;26.40;43.00;;;;;;5078423;28;19916;-85
2021/10/27 01:10:18;;;;;;;;;;;26.40;43.00;;;;;;5061790;28;19923;-82
2021/10/27 01:12:46;;;;;;;;;;;26.40;43.10;;;;;;5078486;28;19916;-82
2021/10/27 01:15:12;;;;;;;;;;;26.40;43.00;;;;;;5078290;28;20340;-84
2021/10/27 01:17:37;;;;;;;;;;;26.40;43.00;;;;;;5061640;28;20003;-83
2021/10/27 01:20:03;;;;;;;;;;;26.40;43.00;;;;;;5061647;28;20003;-84
2021/10/27 01:22:33;;;;;;;;;;;26.40;43.00;;;;;;5078632;28;19912;-82
2021/10/27 01:25:03;;;;;;;;;;;26.40;43.00;;;;;;5078218;28;20054;-83
2021/10/27 01:27:28;;;;;;;;;;;26.40;43.00;;;;;;5061403;28;19912;-84
2021/10/27 01:29:55;;;;;;;;;;;26.40;43.00;;;;;;5061145;28;19912;-82
2021/10/27 01:32:37;;;;;;;;;;;26.40;43.00;;;;;;5061447;28;20249;-82
2021/10/27 01:35:02;;;;;;;;;;;26.40;43.00;;;;;;5062297;28;20337;-83
2021/10/27 01:37:28;;;;;;;;;;;26.40;43.00;;;;;;5096452;28;19932;-84
2021/10/27 01:39:54;;;;;;;;;;;26.40;43.00;;;;;;5061641;28;20336;-83
2021/10/27 01:42:22;;;;;;;;;;;26.40;43.00;;;;;;5077729;28;19909;-85
2021/10/27 01:44:49;;;;;;;;;;;26.40;43.00;;;;;;5078099;28;19919;-85
2021/10/27 01:47:15;;;;;;;;;;;26.40;43.00;;;;;;5078011;28;19908;-83
2021/10/27 01:49:43;;;;;;;;;;;26.40;43.00;;;;;;5095213;28;20058;-83
2021/10/27 01:52:08;;;;;;;;;;;26.40;43.00;;;;;;5077487;28;20339;-83
2021/10/27 01:54:34;;;;;;;;;;;26.40;43.00;;;;;;5077636;28;19920;-84
2021/10/27 01:57:00;;;;;;;;;;;26.40;43.00;;;;;;5061039;28;20226;-82
2021/10/27 01:59:30;;;;;;;;;;;26.40;43.00;;;;;;5095422;28;20018;-82
2021/10/27 02:01:58;;;;;;;;;;;26.40;43.00;;;;;;5077638;28;20221;-81
2021/10/27 02:04:24;;;;;;;;;;;26.40;43.00;;;;;;5078058;28;19908;-85
2021/10/27 02:06:49;;;;;;;;;;;26.40;43.00;;;;;;5077564;28;20272;-83
2021/10/27 02:09:15;;;;;;;;;;;26.40;43.00;;;;;;5095311;28;19908;-83
2021/10/27 02:11:40;;;;;;;;;;;26.40;43.00;;;;;;5077553;28;19912;-81
2021/10/27 02:14:06;;;;;;;;;;;26.40;43.00;;;;;;5095291;28;19915;-83
2021/10/27 02:16:31;;;;;;;;;;;26.40;43.00;;;;;;5060775;28;19908;-81
2021/10/27 02:18:57;;;;;;;;;;;26.40;43.00;;;;;;5077380;28;19920;-83
2021/10/27 02:21:25;;;;;;;;;;;26.40;43.00;;;;;;5077235;28;19908;-84
2021/10/27 02:23:51;;;;;;;;;;;26.40;43.00;;;;;;5094943;28;19908;-85
2021/10/27 02:26:18;;;;;;;;;;;26.40;43.00;;;;;;5077389;28;19952;-86
2021/10/27 02:28:44;;;;;;;;;;;26.40;43.00;;;;;;5077714;28;20478;-84
2021/10/27 02:31:09;;;;;;;;;;;26.40;43.00;;;;;;5095115;28;20015;-84
2021/10/27 02:33:37;;;;;;;;;;;26.40;43.00;;;;;;5094937;28;19908;-83
2021/10/27 02:36:05;;;;;;;;;;;26.40;43.00;;;;;;5077310;28;19947;-83
2021/10/27 02:38:30;;;;;;;;;;;26.40;43.00;;;;;;5060501;28;20249;-83
2021/10/27 02:40:58;;;;;;;;;;;26.40;43.00;;;;;;5077415;28;19920;-85
2021/10/27 02:43:24;;;;;;;;;;;26.40;43.00;;;;;;5077090;28;19912;-84
2021/10/27 02:45:49;;;;;;;;;;;26.40;43.00;;;;;;5077216;28;20004;-84
2021/10/27 02:48:17;;;;;;;;;;;26.40;43.00;;;;;;5077269;28;20356;-86
2021/10/27 02:50:43;;;;;;;;;;;26.40;43.00;;;;;;5094853;28;19959;-83
2021/10/27 02:53:11;;;;;;;;;;;26.40;43.00;;;;;;5077382;28;19950;-83
2021/10/27 02:55:36;;;;;;;;;;;26.40;43.00;;;;;;5094695;28;20340;-83
2021/10/27 02:58:02;;;;;;;;;;;26.40;43.00;;;;;;5077054;28;19909;-83
2021/10/27 03:00:30;;;;;;;;;;;26.40;43.00;;;;;;5060256;28;20365;-85
2021/10/27 03:02:58;;;;;;;;;;;26.40;43.00;;;;;;5077288;28;19908;-82
2021/10/27 03:05:24;;;;;;;;;;;26.40;43.00;;;;;;5064206;28;19912;-82
2021/10/27 03:07:52;;;;;;;;;;;26.30;43.00;;;;;;5081074;28;19981;-87
2021/10/27 03:10:17;;;;;;;;;;;26.40;43.00;;;;;;5098778;28;20376;-85
2021/10/27 03:12:43;;;;;;;;;;;26.40;43.00;;;;;;5080894;28;19908;-82
2021/10/27 03:15:11;;;;;;;;;;;26.40;43.00;;;;;;5080707;28;20325;-83
2021/10/27 03:17:39;;;;;;;;;;;26.40;43.00;;;;;;5080389;28;19913;-83
2021/10/27 03:20:05;;;;;;;;;;;26.40;43.00;;;;;;5063728;28;20003;-83
2021/10/27 03:22:31;;;;;;;;;;;26.40;43.00;;;;;;5080669;28;19932;-83
2021/10/27 03:24:56;;;;;;;;;;;26.40;43.00;;;;;;5098107;28;19909;-83
2021/10/27 03:27:22;;;;;;;;;;;26.40;43.00;;;;;;5098131;28;19962;-87
2021/10/27 03:29:47;;;;;;;;;;;26.40;43.00;;;;;;5097976;28;19919;-84
2021/10/27 03:32:13;;;;;;;;;;;26.40;43.00;;;;;;5080554;28;20222;-82
2021/10/27 03:34:39;;;;;;;;;;;26.40;43.00;;;;;;5097986;28;19923;-83
2021/10/27 03:37:05;;;;;;;;;;;26.40;43.00;;;;;;5097635;28;19919;-82
2021/10/27 03:39:33;;;;;;;;;;;26.40;43.00;;;;;;5063424;28;19908;-83
2021/10/27 03:41:58;;;;;;;;;;;26.40;43.00;;;;;;5080621;28;19912;-82
2021/10/27 03:44:24;;;;;;;;;;;26.40;43.00;;;;;;5098109;28;19908;-81
2021/10/27 03:46:51;;;;;;;;;;;26.40;43.00;;;;;;5080238;28;19908;-85
2021/10/27 03:49:17;;;;;;;;;;;26.40;43.00;;;;;;5080391;28;19930;-84
2021/10/27 03:51:43;;;;;;;;;;;26.40;43.60;;;;;;5080293;28;20476;-85
2021/10/27 03:54:08;;;;;;;;;;;26.30;43.00;;;;;;5079889;28;19997;-82
2021/10/27 03:56:36;;;;;;;;;;;26.40;43.00;;;;;;5063441;28;19908;-83
2021/10/27 03:59:04;;;;;;;;;;;26.40;43.00;;;;;;5080209;28;19908;-84
2021/10/27 04:01:30;;;;;;;;;;;26.30;43.00;;;;;;5097526;28;20332;-81
2021/10/27 04:03:55;;;;;;;;;;;26.40;43.00;;;;;;5081763;28;19995;-87
2021/10/27 04:06:21;;;;;;;;;;;26.40;43.00;;;;;;5097480;28;19908;-85
2021/10/27 04:08:46;;;;;;;;;;;26.30;42.90;;;;;;5079675;28;19978;-84
2021/10/27 04:11:12;;;;;;;;;;;26.30;43.00;;;;;;5079556;28;19923;-83
2021/10/27 04:13:38;;;;;;;;;;;26.30;42.90;;;;;;5080218;28;19908;-83
2021/10/27 04:16:04;;;;;;;;;;;26.40;43.00;;;;;;5079240;28;19908;-84
2021/10/27 04:18:32;;;;;;;;;;;26.40;43.00;;;;;;5097004;28;19918;-83
2021/10/27 04:20:58;;;;;;;;;;;26.30;43.00;;;;;;5080500;28;19981;-82
2021/10/27 04:23:24;;;;;;;;;;;26.30;43.00;;;;;;5082096;28;19908;-83
2021/10/27 04:25:49;;;;;;;;;;;26.40;43.00;;;;;;5081930;28;19908;-81
2021/10/27 04:28:17;;;;;;;;;;;26.30;43.00;;;;;;5081169;28;19908;-84
2021/10/27 04:30:42;;;;;;;;;;;26.30;43.00;;;;;;5080501;28;20313;-84
2021/10/27 04:33:17;;;;;;;;;;;26.30;43.00;;;;;;5097527;28;19918;-84
2021/10/27 04:35:43;;;;;;;;;;;26.30;43.00;;;;;;5079498;28;19934;-83
2021/10/27 04:38:08;;;;;;;;;;;26.30;43.00;;;;;;5079322;28;19928;-83
2021/10/27 04:40:40;;;;;;;;;;;26.40;43.00;;;;;;5079447;28;19919;-83
2021/10/27 04:43:05;;;;;;;;;;;26.30;43.00;;;;;;5079256;28;19908;-83
2021/10/27 04:45:33;;;;;;;;;;;26.30;43.00;;;;;;5078961;28;19919;-84
2021/10/27 04:47:59;;;;;;;;;;;26.30;43.00;;;;;;5062697;28;20403;-82
2021/10/27 04:50:27;;;;;;;;;;;26.30;43.00;;;;;;5079287;28;20007;-81
2021/10/27 04:52:52;;;;;;;;;;;26.30;43.00;;;;;;5079563;28;20488;-86
2021/10/27 04:55:18;;;;;;;;;;;26.30;43.00;;;;;;5097338;28;19954;-83
2021/10/27 04:57:46;;;;;;;;;;;26.30;43.00;;;;;;5097197;28;19995;-84
2021/10/27 05:00:14;;;;;;;;;;;26.30;43.00;;;;;;5079064;28;19908;-83
2021/10/27 05:02:42;;;;;;;;;;;26.30;43.00;;;;;;5078680;28;19927;-82
2021/10/27 05:05:07;;;;;;;;;;;26.30;43.00;;;;;;5061995;28;20321;-80
2021/10/27 05:07:33;;;;;;;;;;;26.30;43.00;;;;;;5062265;28;19938;-83
2021/10/27 05:09:58;;;;;;;;;;;26.30;43.00;;;;;;5078619;28;19990;-81
2021/10/27 05:12:24;;;;;;;;;;;26.40;43.00;;;;;;5078426;28;19908;-78
2021/10/27 05:14:51;;;;;;;;;;;26.30;43.00;;;;;;5061781;28;19919;-85
2021/10/27 05:17:17;;;;;;;;;;;26.30;42.90;;;;;;5061950;28;19919;-83
2021/10/27 05:19:43;;;;;;;;;;;25.90;36.90;;;;;;5061976;28;19908;-80
2021/10/27 05:22:12;;;;;;;;;;;21.60;42.50;;;;;;5078453;28;20337;-79
2021/10/27 05:24:37;;;;;;;;;;;19.20;46.60;;;;;;5078427;28;19923;-79
2021/10/27 05:27:03;;;;;;;;;;;17.50;50.60;;;;;;5061617;28;19908;-79
2021/10/27 05:29:29;;;;;;;;;;;16.20;54.00;;;;;;5078333;28;19951;-78
2021/10/27 05:31:57;;;;;;;;;;;15.70;55.60;;;;;;5078111;28;20005;-78
2021/10/27 05:34:22;;;;;;;;;;;15.40;56.20;;;;;;5078488;28;19908;-79
2021/10/27 05:36:50;;;;;;;;;;;16.20;55.80;;;;;;5078172;28;19908;-81
2021/10/27 05:39:17;;;;;;;;;;;18.00;52.30;;;;;;5078018;28;19928;-80
2021/10/27 05:41:46;;;;;;;;;;;19.60;48.70;;;;;;5078248;28;19927;-81
2021/10/27 05:44:14;;;;;;;;;;;20.70;46.70;;;;;;5061524;28;20244;-80
2021/10/27 05:46:41;;;;;;;;;;;21.60;45.20;;;;;;5078223;28;20310;-80
2021/10/27 05:51:55;;;;;;;;;;;22.80;43.30;;;;;;5091543;28;19983;-82
2021/10/27 05:57:08;;;;;;;;;;;23.50;43.30;;;;;;5090912;28;19916;-81
2021/10/27 05:59:36;;;;;;;;;;;23.80;43.40;;;;;;5072201;28;20325;-86
2021/10/27 06:02:01;;;;;;;;;;;24.00;43.30;;;;;;5084157;28;19908;-87
2021/10/27 06:04:31;;;;;;;;;;;24.10;43.30;;;;;;5061865;28;19908;-85
2021/10/27 06:06:58;;;;;;;;;;;24.30;43.30;;;;;;5062246;28;19939;-79
2021/10/27 06:09:24;;;;;;;;;;;24.50;43.10;;;;;;5061621;28;19908;-81
2021/10/27 06:11:50;;;;;;;;;;;24.60;43.10;;;;;;5077654;28;19978;-80
2021/10/27 06:14:16;;;;;;;;;;;24.60;43.20;;;;;;5061317;28;19909;-81
2021/10/27 06:16:44;;;;;;;;;;;24.70;43.10;;;;;;5077901;28;19908;-78
2021/10/27 06:19:10;;;;;;;;;;;24.70;43.10;;;;;;5061219;28;19908;-81
2021/10/27 06:21:36;;;;;;;;;;;24.80;43.10;;;;;;5077495;28;19908;-82
2021/10/27 06:24:01;;;;;;;;;;;24.90;43.00;;;;;;5077745;28;19907;-83
2021/10/27 06:26:27;;;;;;;;;;;25.00;43.00;;;;;;5060927;28;19919;-80
2021/10/27 06:31:34;;;;;;;;;;;25.10;42.70;;;;;;5078579;28;19931;-83
2021/10/27 06:47:19;;;;;;;;;;;25.30;42.40;;;;;;5066084;28;19966;-83
2021/10/27 06:49:46;;;;;;;;;;;25.30;42.30;;;;;;5082097;28;19909;-83
2021/10/27 06:52:12;;;;;;;;;;;25.30;42.40;;;;;;5064940;28;19908;-81
2021/10/27 06:54:38;;;;;;;;;;;25.30;42.50;;;;;;5064628;28;19915;-78
2021/10/27 06:57:03;;;;;;;;;;;25.40;42.50;;;;;;5065012;28;20218;-85
2021/10/27 06:59:38;;;;;;;;;;;25.40;42.60;;;;;;5064730;28;19920;-84
2021/10/27 07:15:54;;;;;;;;;;;25.50;43.30;;;;;;5084364;28;20328;-82
2021/10/27 07:18:20;;;;;;;;;;;25.60;43.30;;;;;;5081196;28;19957;-83
2021/10/27 07:20:45;;;;;;;;;;;25.60;43.30;;;;;;5064632;28;19912;-84
2021/10/27 07:23:12;;;;;;;;;;;25.60;43.30;;;;;;5064180;28;19920;-83
2021/10/27 07:25:40;;;;;;;;;;;25.60;43.10;;;;;;5064670;28;19916;-86
2021/10/27 07:28:06;;;;;;;;;;;25.70;43.10;;;;;;5064198;28;20435;-83
2021/10/27 07:30:34;;;;;;;;;;;25.70;43.00;;;;;;5064089;28;19999;-81
2021/10/27 07:32:59;;;;;;;;;;;25.70;43.00;;;;;;5064389;28;19912;-85
2021/10/27 07:35:41;;;;;;;;;;;25.70;43.00;;;;;;5064338;28;19950;-85
2021/10/27 07:40:54;;;;;;;;;;;25.70;43.10;;;;;;5083496;28;20046;-81
2021/10/27 07:43:26;;;;;;;;;;;25.70;43.10;;;;;;5064153;28;19912;-81
2021/10/27 07:45:53;;;;;;;;;;;25.70;43.10;;;;;;5064774;28;19916;-81
2021/10/27 07:48:18;;;;;;;;;;;25.70;43.10;;;;;;5063766;28;20010;-79
2021/10/27 07:50:44;;;;;;;;;;;25.70;43.10;;;;;;5080135;28;20002;-81
2021/10/27 07:53:15;;;;;;;;;;;25.70;43.20;;;;;;5063865;28;19987;-83
2021/10/27 07:55:50;;;;;;;;;;;25.70;43.20;;;;;;5063777;28;19908;-81
2021/10/27 07:58:19;;;;;;;;;;;25.70;43.30;;;;;;5063632;28;20329;-79
2021/10/27 08:00:48;;;;;;;;;;;25.70;43.30;;;;;;5063957;28;19940;-84
2021/10/27 08:03:14;;;;;;;;;;;25.70;43.30;;;;;;5064187;28;20325;-85
2021/10/27 08:05:41;;;;;;;;;;;25.70;43.30;;;;;;5080587;28;20349;-78
2021/10/27 08:08:10;;;;;;;;;;;25.70;43.20;;;;;;5068005;28;19919;-80
2021/10/27 08:10:37;;;;;;;;;;;25.70;43.30;;;;;;5082273;28;19962;-85
2021/10/27 08:13:03;;;;;;;;;;;25.70;43.10;;;;;;5064018;28;20230;-81
2021/10/27 08:15:32;;;;;;;;;;;25.80;43.20;;;;;;5080089;28;19923;-82
2021/10/27 08:17:57;;;;;;;;;;;25.80;43.20;;;;;;5063212;28;19908;-83
2021/10/27 08:20:23;;;;;;;;;;;25.80;43.20;;;;;;5063178;28;20018;-83
2021/10/27 08:22:54;;;;;;;;;;;25.80;43.30;;;;;;5079880;28;19915;-82
2021/10/27 08:28:03;;;;;;;;;;;25.80;43.20;;;;;;5081699;28;19918;-83
2021/10/27 08:33:35;;;;;;;;;;;25.80;43.30;;;;;;5063841;28;19911;-81
2021/10/27 08:36:00;;;;;;;;;;;25.90;43.20;;;;;;5082346;28;20292;-82
2021/10/27 08:38:28;;;;;;;;;;;25.90;43.30;;;;;;5079451;28;19927;-83
2021/10/27 08:40:55;;;;;;;;;;;25.90;43.40;;;;;;5063559;28;19908;-84
2021/10/27 08:43:21;;;;;;;;;;;25.90;43.30;;;;;;5080075;28;20305;-85
2021/10/27 08:45:46;;;;;;;;;;;25.90;43.20;;;;;;5063017;28;19919;-82
2021/10/27 08:48:14;;;;;;;;;;;26.00;43.20;;;;;;5079687;28;19919;-87
2021/10/27 08:50:42;;;;;;;;;;;26.00;43.00;;;;;;5079392;28;19957;-82
2021/10/27 08:53:08;;;;;;;;;;;26.10;43.00;;;;;;5062769;28;19915;-81
2021/10/27 08:55:36;;;;;;;;;;;26.10;42.80;;;;;;5062524;28;20515;-81
2021/10/27 08:58:04;;;;;;;;;;;26.10;42.70;;;;;;5062201;28;19912;-81
2021/10/27 09:00:35;;;;;;;;;;;26.10;42.70;;;;;;5062341;28;19912;-80
2021/10/27 09:06:32;;;;;;;;;;;26.10;42.90;;;;;;5097228;28;19938;-80
2021/10/27 09:17:03;;;;;;;;;;;26.20;42.80;;;;;;5070808;28;19908;-84
2021/10/27 10:06:09;;;;;;;;;;;26.30;42.60;;;;;;5085526;28;19957;-81
2021/10/27 10:08:35;;;;;;;;;;;26.20;42.60;;;;;;5062222;28;20219;-81
2021/10/27 10:11:00;;;;;;;;;;;26.20;42.60;;;;;;5077737;28;19920;-78
2021/10/27 10:13:30;;;;;;;;;;;26.10;38.80;;;;;;5060996;28;19912;-77
2021/10/27 10:15:56;;;;;;;;;;;24.30;39.30;;;;;;5078635;28;19909;-77
2021/10/27 10:18:22;;;;;;;;;;;23.30;40.10;;;;;;5077648;28;19947;-79
2021/10/27 10:20:49;;;;;;;;;;;22.20;41.90;;;;;;5077418;28;19947;-78
2021/10/27 10:23:20;;;;;;;;;;;21.40;43.70;;;;;;5060583;28;20303;-78
2021/10/27 10:25:50;;;;;;;;;;;21.00;44.60;;;;;;5060816;28;19947;-80
2021/10/27 10:28:16;;;;;;;;;;;20.40;45.30;;;;;;5077239;28;19915;-80
2021/10/27 10:30:48;;;;;;;;;;;20.70;45.80;;;;;;5060350;28;20017;-81
2021/10/27 10:33:16;;;;;;;;;;;21.60;44.80;;;;;;5077737;28;19919;-80
2021/10/27 10:35:51;;;;;;;;;;;22.40;43.50;;;;;;5060725;28;20333;-78
2021/10/27 10:38:27;;;;;;;;;;;23.00;42.50;;;;;;5076926;28;19924;-80
2021/10/27 11:25:48;;;;;;;;;;;25.60;40.30;;;;;;5081776;28;20361;-82
2021/10/27 11:42:12;;;;;;;;;;;25.70;40.40;;;;;;5082966;28;19963;-83
2021/10/27 11:44:49;;;;;;;;;;;25.70;40.30;;;;;;5065190;28;21248;-81
2021/10/27 11:47:33;;;;;;;;;;;25.70;40.40;;;;;;5081630;28;19962;-83
2021/10/27 11:49:59;;;;;;;;;;;25.80;40.50;;;;;;5064209;28;19973;-83
2021/10/27 11:52:36;;;;;;;;;;;25.80;40.50;;;;;;5063878;28;20332;-85
2021/10/27 11:55:05;;;;;;;;;;;25.90;40.50;;;;;;5080950;28;19912;-84
2021/10/27 11:57:36;;;;;;;;;;;25.90;40.60;;;;;;5064114;28;19939;-84
2021/10/27 12:00:06;;;;;;;;;;;25.90;40.60;;;;;;5063408;28;19918;-81
2021/10/27 12:02:58;;;;;;;;;;;25.80;40.60;;;;;;5063742;28;20337;-82
2021/10/27 12:05:36;;;;;;;;;;;25.90;40.60;;;;;;5080978;28;19916;-85
2021/10/27 12:08:30;;;;;;;;;;;25.90;40.60;;;;;;5064843;28;19962;-82
2021/10/27 12:11:02;;;;;;;;;;;26.00;40.80;;;;;;5083035;28;19923;-84
2021/10/27 12:19:06;;;;;;;;;;;26.00;40.70;;;;;;5052913;28;19909;-82
2021/10/27 12:21:32;;;;;;;;;;;26.00;40.70;;;;;;5062953;28;19916;-79
2021/10/27 12:24:03;;;;;;;;;;;26.00;40.80;;;;;;5062995;28;19966;-82
2021/10/27 12:26:40;;;;;;;;;;;26.00;40.80;;;;;;5080405;28;19998;-86
2021/10/27 12:29:12;;;;;;;;;;;26.10;40.90;;;;;;5062962;28;20408;-80
2021/10/27 12:31:38;;;;;;;;;;;26.10;40.80;;;;;;5080127;28;19969;-81
2021/10/27 12:34:17;;;;;;;;;;;26.10;40.80;;;;;;5062596;28;19909;-81
2021/10/27 12:36:43;;;;;;;;;;;26.10;40.90;;;;;;5061952;28;19962;-83
2021/10/27 12:39:16;;;;;;;;;;;26.10;40.80;;;;;;5062532;28;19920;-83
2021/10/27 12:41:44;;;;;;;;;;;26.10;40.90;;;;;;5079179;28;19912;-80
2021/10/27 12:44:21;;;;;;;;;;;26.20;40.90;;;;;;5079719;28;19920;-81
2021/10/27 12:46:49;;;;;;;;;;;26.10;40.80;;;;;;5063221;28;19965;-83
2021/10/27 12:49:19;;;;;;;;;;;26.10;40.80;;;;;;5062509;28;19930;-82
2021/10/27 12:51:45;;;;;;;;;;;26.20;40.90;;;;;;5062278;28;19919;-80
2021/10/27 12:54:10;;;;;;;;;;;26.20;41.00;;;;;;5063079;28;19954;-82
2021/10/27 12:56:36;;;;;;;;;;;26.20;41.00;;;;;;5062379;28;19913;-83
2021/10/27 12:59:09;;;;;;;;;;;26.20;41.00;;;;;;5062568;28;19920;-81
2021/10/27 13:01:44;;;;;;;;;;;26.20;41.00;;;;;;5079690;28;19962;-85
2021/10/27 13:04:30;;;;;;;;;;;26.20;40.90;;;;;;5063313;28;19923;-81
2021/10/27 13:07:05;;;;;;;;;;;26.30;41.80;;;;;;5064712;28;19931;-82
2021/10/27 13:18:17;;;;;;;;;;;26.30;41.20;;;;;;5078767;28;19919;-84
2021/10/27 13:21:12;;;;;;;;;;;26.30;41.20;;;;;;5064370;28;19961;-79
2021/10/27 13:29:29;;;;;;;;;;;26.30;41.20;;;;;;5082342;28;20329;-82
2021/10/27 13:31:58;;;;;;;;;;;26.40;41.30;;;;;;5081355;28;19942;-84
2021/10/27 13:34:24;;;;;;;;;;;26.40;41.40;;;;;;5078824;28;19908;-84
2021/10/27 13:36:51;;;;;;;;;;;26.40;41.30;;;;;;5062361;28;19981;-79
2021/10/27 13:39:19;;;;;;;;;;;26.40;41.30;;;;;;5078114;28;19920;-84
2021/10/27 13:41:50;;;;;;;;;;;26.50;41.60;;;;;;5061998;28;19981;-80
2021/10/27 13:44:22;;;;;;;;;;;26.40;41.90;;;;;;5062315;28;19915;-86
2021/10/27 13:49:54;;;;;;;;;;;26.50;41.60;;;;;;5081161;28;19908;-80
2021/10/27 14:08:44;;;;;;;;;;;26.50;41.70;;;;;;5081189;28;19976;-80
2021/10/27 15:21:50;;;;;;;;;;;26.70;42.10;;;;;;5084406;28;19919;-79
2021/10/27 15:42:54;;;;;;;;;;;26.70;42.20;;;;;;5083261;28;20049;-86
2021/10/27 15:53:03;;;;;;;;;;;26.70;42.30;;;;;;5081599;28;20399;-81
2021/10/27 15:55:32;;;;;;;;;;;26.80;42.10;;;;;;5063651;28;20341;-83
2021/10/27 15:58:02;;;;;;;;;;;26.80;42.10;;;;;;5080344;28;19916;-82
2021/10/27 16:00:28;;;;;;;;;;;26.80;42.10;;;;;;5080630;28;19986;-85
2021/10/27 16:02:53;;;;;;;;;;;26.70;42.00;;;;;;5079996;28;20390;-81
2021/10/27 16:05:25;;;;;;;;;;;26.70;42.00;;;;;;5080033;28;19908;-83
2021/10/27 16:07:53;;;;;;;;;;;26.70;42.00;;;;;;5064457;28;19908;-82
2021/10/27 16:10:21;;;;;;;;;;;26.70;42.10;;;;;;5079669;28;19908;-81
2021/10/27 16:12:49;;;;;;;;;;;26.70;42.10;;;;;;5080279;28;19915;-80
2021/10/27 16:16:00;;;;;;;;;;;26.70;42.10;;;;;;5063642;28;19912;-82
2021/10/27 16:18:06;;;;;;;;;;;26.70;42.10;;;;;;5089156;28;19908;-82
2021/10/27 16:20:33;;;;;;;;;;;26.70;42.20;;;;;;5063012;28;19996;-84
2021/10/27 16:22:59;;;;;;;;;;;26.60;42.70;;;;;;5062642;28;19919;-82
2021/10/27 16:25:25;;;;;;;;;;;26.60;42.20;;;;;;5063004;28;19916;-80
2021/10/27 16:27:53;;;;;;;;;;;26.60;42.20;;;;;;5079421;28;19908;-81
2021/10/27 16:30:19;;;;;;;;;;;26.60;42.30;;;;;;5062812;28;19908;-80
2021/10/27 16:32:44;;;;;;;;;;;26.60;42.20;;;;;;5079243;28;20295;-80
2021/10/27 16:35:10;;;;;;;;;;;26.60;42.20;;;;;;5079503;28;19920;-79
2021/10/27 16:37:36;;;;;;;;;;;26.60;42.20;;;;;;5079773;28;20008;-79
2021/10/27 16:40:04;;;;;;;;;;;26.60;42.20;;;;;;5062728;28;20338;-81
2021/10/27 16:42:33;;;;;;;;;;;26.60;42.20;;;;;;5079337;28;19908;-80
2021/10/27 16:44:59;;;;;;;;;;;26.60;42.20;;;;;;5079144;28;19908;-83
2021/10/27 16:47:24;;;;;;;;;;;26.60;42.10;;;;;;5062410;28;19966;-78
2021/10/27 16:49:52;;;;;;;;;;;26.60;42.20;;;;;;5062169;28;20428;-79
2021/10/27 16:52:20;;;;;;;;;;;26.60;42.20;;;;;;5078894;28;19928;-81
2021/10/27 16:54:46;;;;;;;;;;;26.60;42.20;;;;;;5079138;28;19919;-80
2021/10/27 16:57:11;;;;;;;;;;;26.50;42.10;;;;;;5061912;28;19908;-80
2021/10/27 16:59:39;;;;;;;;;;;26.50;42.20;;;;;;5078983;28;20337;-78
2021/10/27 17:02:07;;;;;;;;;;;26.50;42.20;;;;;;5078476;28;19908;-82
2021/10/27 17:04:33;;;;;;;;;;;26.50;42.20;;;;;;5078457;28;19919;-79
2021/10/27 17:06:59;;;;;;;;;;;26.50;42.20;;;;;;5078524;28;19908;-82
2021/10/27 17:09:24;;;;;;;;;;;26.50;42.20;;;;;;5061614;28;20299;-83
2021/10/27 17:11:50;;;;;;;;;;;26.50;42.20;;;;;;5096282;28;19923;-79
2021/10/27 17:14:18;;;;;;;;;;;26.50;42.20;;;;;;5061947;28;20272;-81
2021/10/27 17:16:43;;;;;;;;;;;26.50;42.20;;;;;;5096476;28;20349;-80
2021/10/27 17:19:10;;;;;;;;;;;26.50;42.20;;;;;;5078525;28;19983;-78
2021/10/27 17:21:39;;;;;;;;;;;26.50;42.20;;;;;;5062052;28;20379;-80
2021/10/27 17:24:05;;;;;;;;;;;26.50;42.20;;;;;;5061228;28;19920;-83
2021/10/27 17:26:31;;;;;;;;;;;26.50;42.20;;;;;;5096354;28;19927;-81
2021/10/27 17:28:57;;;;;;;;;;;26.50;42.20;;;;;;5096371;28;19918;-80
2021/10/27 17:31:26;;;;;;;;;;;26.50;42.20;;;;;;5060389;28;20308;-80
2021/10/27 17:33:54;;;;;;;;;;;26.50;42.30;;;;;;5096115;28;19966;-81
2021/10/27 17:36:23;;;;;;;;;;;26.50;42.30;;;;;;5061933;28;19959;-81
2021/10/27 17:38:51;;;;;;;;;;;26.50;42.40;;;;;;5077984;28;19994;-82
2021/10/27 17:41:17;;;;;;;;;;;26.60;42.60;;;;;;5061520;28;19908;-82
2021/10/27 17:43:47;;;;;;;;;;;26.10;38.30;;;;;;5078556;28;19974;-81
2021/10/27 17:46:13;;;;;;;;;;;24.20;39.80;;;;;;5061364;28;19908;-79
2021/10/27 17:48:45;;;;;;;;;;;23.60;42.10;;;;;;5077970;28;19935;-82
2021/10/27 17:51:24;;;;;;;;;;;24.00;40.70;;;;;;5062222;28;20237;-79
2021/10/27 17:59:23;;;;;;;;;;;24.20;39.40;;;;;;5082270;28;19918;-79
2021/10/27 18:01:48;;;;;;;;;;;24.30;39.30;;;;;;5077712;28;19939;-78
2021/10/27 18:04:14;;;;;;;;;;;24.20;39.20;;;;;;5060932;28;19915;-79
2021/10/27 18:06:40;;;;;;;;;;;24.30;39.20;;;;;;5060905;28;19995;-78
2021/10/27 18:09:10;;;;;;;;;;;24.20;39.00;;;;;;5095416;28;20257;-77
2021/10/27 18:11:36;;;;;;;;;;;24.30;39.00;;;;;;5078086;28;20019;-78
2021/10/27 18:14:17;;;;;;;;;;;24.20;38.90;;;;;;5061111;28;20325;-78
2021/10/27 18:16:59;;;;;;;;;;;24.20;39.00;;;;;;5095755;28;19909;-83
2021/10/27 18:37:56;;;;;;;;;;;25.60;39.70;;;;;;5093516;28;19939;-81
2021/10/27 18:40:38;;;;;;;;;;;25.70;39.80;;;;;;5087630;28;20341;-80
2021/10/27 18:43:10;;;;;;;;;;;25.70;39.70;;;;;;5068179;28;19915;-82
2021/10/27 18:45:39;;;;;;;;;;;25.80;39.70;;;;;;5067204;28;19918;-80
2021/10/27 18:48:10;;;;;;;;;;;25.90;39.60;;;;;;5081983;28;19962;-82
2021/10/27 18:50:45;;;;;;;;;;;25.90;39.40;;;;;;5081386;28;19924;-82
2021/10/27 18:58:30;;;;;;;;;;;26.10;39.60;;;;;;5081517;28;19908;-82
2021/10/27 19:01:24;;;;;;;;;;;26.10;39.60;;;;;;5065541;28;19926;-82
2021/10/27 19:12:16;;;;;;;;;;;26.30;39.70;;;;;;5083083;28;19911;-83
2021/10/27 19:17:26;;;;;;;;;;;26.30;39.60;;;;;;5083145;28;20226;-80
2021/10/27 19:19:53;;;;;;;;;;;26.30;39.70;;;;;;5080958;28;20352;-81
2021/10/27 19:22:22;;;;;;;;;;;26.30;39.60;;;;;;5064307;28;20333;-81
2021/10/27 19:24:57;;;;;;;;;;;26.30;39.70;;;;;;5081189;28;20383;-83
2021/10/27 19:35:19;;;;;;;;;;;26.40;39.90;;;;;;5081371;28;20007;-81
2021/10/27 20:28:59;;;;;;;;;;;26.50;40.30;;;;;;5080829;28;19908;-83
2021/10/27 20:50:46;;;;;;;;;;;26.50;40.80;;;;;;5081877;28;19973;-84
2021/10/27 20:53:19;;;;;;;;;;;26.50;40.90;;;;;;5065850;28;20305;-84
2021/10/27 20:55:45;;;;;;;;;;;26.50;40.90;;;;;;5063514;28;19963;-86
2021/10/27 21:00:55;;;;;;;;;;;26.50;40.90;;;;;;5079517;28;20347;-83
2021/10/27 21:03:59;;;;;;;;;;;26.50;40.90;;;;;;5065166;28;20370;-82
2021/10/27 21:14:29;;;;;;;;;;;26.40;41.00;;;;;;5097080;28;19961;-87
2021/10/27 21:16:55;;;;;;;;;;;26.30;41.00;;;;;;5078882;28;20283;-81
2021/10/27 21:19:23;;;;;;;;;;;26.30;41.10;;;;;;5062022;28;20364;-83
2021/10/27 21:21:51;;;;;;;;;;;26.40;41.10;;;;;;5055502;28;19916;-84
2021/10/27 21:24:19;;;;;;;;;;;26.40;41.20;;;;;;5061903;28;19952;-82
2021/10/27 21:26:45;;;;;;;;;;;26.40;41.20;;;;;;5062373;28;19919;-84
2021/10/27 21:29:27;;;;;;;;;;;26.30;41.20;;;;;;5062705;28;20306;-83